Time;durP1;ratioP1;P1;durP2;ratioP2;P2;SDS_P1;SDS_P2;PMS_P1;PMS_P2;Temp;Humidity;BMP_temperature;BMP_pressure;BME280_temperature;BME280_humidity;BME280_pressure;Samples;Min_cycle;Max_cycle;Signal;HPM_P1;HPM_P2
2023/09/23 00:00:23;;;;;;;4.18;1.80;;;;;;;9.32;100.00;93533.50;5030474;28;20041;-60
2023/09/23 00:02:51;;;;;;;3.90;1.60;;;;;;;9.27;100.00;93533.19;5044568;28;20560;-60
2023/09/23 00:05:20;;;;;;;3.43;1.63;;;;;;;9.26;100.00;93537.13;5030114;28;20407;-60
2023/09/23 00:07:49;;;;;;;17.83;9.93;;;;;;;9.31;100.00;93533.91;5030075;28;20046;-59
2023/09/23 00:10:16;;;;;;;9.65;4.75;;;;;;;9.33;100.00;93539.75;5029858;28;20094;-60
2023/09/23 00:12:43;;;;;;;4.40;2.45;;;;;;;9.35;100.00;93538.13;5029632;28;20049;-60
2023/09/23 00:15:12;;;;;;;5.15;2.20;;;;;;;9.43;100.00;93532.53;5028946;28;20041;-60
2023/09/23 00:17:40;;;;;;;3.77;1.70;;;;;;;9.47;100.00;93534.03;5037948;28;20046;-60
2023/09/23 00:20:14;;;;;;;3.05;1.63;;;;;;;9.49;100.00;93539.09;5030119;28;20049;-60
2023/09/23 00:22:46;;;;;;;3.88;1.88;;;;;;;9.45;100.00;93533.66;5029572;28;20392;-60
2023/09/23 00:25:16;;;;;;;3.13;1.63;;;;;;;9.55;100.00;93524.50;5030241;28;20486;-60
2023/09/23 00:27:44;;;;;;;4.70;1.73;;;;;;;9.61;100.00;93527.53;5027881;28;20065;-60
2023/09/23 00:30:12;;;;;;;4.13;1.70;;;;;;;9.65;100.00;93525.50;5021811;28;20042;-60
2023/09/23 00:32:41;;;;;;;3.60;1.30;;;;;;;9.64;100.00;93521.22;5028718;28;20041;-59
2023/09/23 00:35:11;;;;;;;3.22;1.60;;;;;;;9.68;100.00;93523.88;5029505;28;20048;-60
2023/09/23 00:37:43;;;;;;;3.45;1.40;;;;;;;9.60;100.00;93526.00;5028847;28;20049;-61
2023/09/23 00:40:17;;;;;;;3.28;1.50;;;;;;;9.62;100.00;93526.34;5028514;28;20456;-60
2023/09/23 00:42:47;;;;;;;3.67;1.70;;;;;;;9.66;100.00;93515.31;5028845;28;20053;-60
2023/09/23 00:45:19;;;;;;;3.25;1.48;;;;;;;9.70;100.00;93525.03;5029527;28;20146;-60
2023/09/23 00:47:46;;;;;;;2.70;1.33;;;;;;;9.78;100.00;93533.88;5028366;28;20043;-60
2023/09/23 00:50:20;;;;;;;2.75;1.48;;;;;;;9.76;100.00;93536.28;5029238;28;20047;-60
2023/09/23 00:52:51;;;;;;;3.17;1.50;;;;;;;9.60;100.00;93532.25;5028493;28;20276;-60
2023/09/23 00:55:20;;;;;;;4.10;1.50;;;;;;;9.37;100.00;93546.69;5028802;28;20037;-60
2023/09/23 00:57:53;;;;;;;3.30;1.75;;;;;;;9.13;100.00;93543.19;5028112;28;20057;-60
2023/09/23 01:00:25;;;;;;;4.25;1.55;;;;;;;8.99;100.00;93560.63;5028829;28;20399;-60
2023/09/23 01:02:55;;;;;;;3.17;1.80;;;;;;;8.91;100.00;93567.38;5027934;28;20064;-60
2023/09/23 01:05:27;;;;;;;5.18;1.80;;;;;;;8.98;100.00;93582.94;5028513;28;20465;-60
2023/09/23 01:07:56;;;;;;;3.37;1.60;;;;;;;9.10;100.00;93587.06;5028542;28;20053;-60
2023/09/23 01:10:23;;;;;;;3.45;1.70;;;;;;;9.19;100.00;93577.13;5028951;28;20485;-60
2023/09/23 01:12:51;;;;;;;3.00;1.85;;;;;;;9.23;100.00;93581.78;5028172;28;20056;-60
2023/09/23 01:15:17;;;;;;;5.30;1.95;;;;;;;9.07;100.00;93577.69;5028892;28;20094;-60
2023/09/23 01:17:47;;;;;;;6.05;1.83;;;;;;;9.00;100.00;93581.31;5027754;28;20073;-60
2023/09/23 01:20:14;;;;;;;3.23;1.50;;;;;;;9.04;100.00;93585.97;5028860;28;20116;-60
2023/09/23 01:22:40;;;;;;;5.07;1.60;;;;;;;8.94;100.00;93576.72;5028121;28;20047;-60
2023/09/23 01:25:08;;;;;;;4.45;1.70;;;;;;;8.88;100.00;93572.91;5027455;28;20052;-60
2023/09/23 01:27:34;;;;;;;2.83;1.42;;;;;;;8.73;100.00;93556.69;5036475;28;20052;-60
2023/09/23 01:30:06;;;;;;;2.72;1.30;;;;;;;8.65;100.00;93563.44;5027730;28;20041;-60
2023/09/23 01:32:41;;;;;;;2.77;1.40;;;;;;;8.64;100.00;93570.09;5028424;28;20075;-60
2023/09/23 01:35:09;;;;;;;2.97;1.33;;;;;;;8.65;100.00;93579.06;5047228;28;20815;-60
2023/09/23 01:37:36;;;;;;;3.53;1.35;;;;;;;8.60;100.00;93588.53;5048297;28;20037;-60
2023/09/23 01:40:05;;;;;;;2.50;1.17;;;;;;;8.64;100.00;93588.47;5046330;28;20109;-60
2023/09/23 01:42:33;;;;;;;4.25;1.33;;;;;;;8.62;100.00;93596.31;5046522;28;20039;-60
2023/09/23 01:44:59;;;;;;;3.53;1.30;;;;;;;8.54;100.00;93592.91;5047804;28;20065;-60
2023/09/23 01:47:26;;;;;;;2.85;1.42;;;;;;;8.53;100.00;93588.59;5048182;28;20447;-59
2023/09/23 01:49:53;;;;;;;3.00;1.48;;;;;;;8.44;100.00;93585.59;5047719;28;20053;-59
2023/09/23 01:52:20;;;;;;;3.75;1.70;;;;;;;8.37;100.00;93580.94;5048182;28;20056;-59
2023/09/23 01:54:48;;;;;;;3.78;1.50;;;;;;;8.29;100.00;93583.03;5047557;28;20052;-59
2023/09/23 01:57:17;;;;;;;3.90;1.40;;;;;;;8.29;100.00;93602.16;5047986;28;20590;-60
2023/09/23 01:59:44;;;;;;;2.65;1.50;;;;;;;8.25;100.00;93597.91;5047671;28;20059;-59
2023/09/23 02:02:11;;;;;;;2.72;1.30;;;;;;;8.19;100.00;93592.13;5048255;28;20478;-59
2023/09/23 02:04:39;;;;;;;2.92;1.50;;;;;;;8.17;100.00;93599.97;5047848;28;20445;-60
2023/09/23 02:07:07;;;;;;;5.07;1.80;;;;;;;8.13;100.00;93597.25;5047110;28;20767;-60
2023/09/23 02:09:35;;;;;;;3.77;1.57;;;;;;;8.16;100.00;93603.88;5047894;28;20075;-59
2023/09/23 02:12:01;;;;;;;96.57;46.58;;;;;;;8.18;100.00;93606.97;5047479;28;20045;-60
2023/09/23 02:14:29;;;;;;;11.38;5.97;;;;;;;8.20;100.00;93618.25;5051504;28;20044;-60
2023/09/23 02:16:57;;;;;;;3.15;1.63;;;;;;;8.19;100.00;93616.72;5051212;28;20106;-59
2023/09/23 02:19:25;;;;;;;3.58;1.83;;;;;;;8.17;100.00;93630.78;5051297;28;20041;-59
2023/09/23 02:21:52;;;;;;;3.57;1.60;;;;;;;8.18;100.00;93634.28;5051075;28;20048;-60
2023/09/23 02:24:19;;;;;;;3.42;1.52;;;;;;;8.18;100.00;93628.81;5051704;28;20045;-60
2023/09/23 02:26:46;;;;;;;3.03;1.60;;;;;;;8.18;100.00;93631.56;5050584;28;20397;-60
2023/09/23 02:29:16;;;;;;;3.08;1.30;;;;;;;8.10;100.00;93633.59;5051254;28;20041;-59
2023/09/23 02:31:48;;;;;;;3.25;1.58;;;;;;;8.04;100.00;93626.25;5050767;28;20057;-60
2023/09/23 02:34:16;;;;;;;3.23;1.53;;;;;;;8.02;100.00;93625.88;5051376;28;20405;-60
2023/09/23 02:36:47;;;;;;;3.47;1.38;;;;;;;8.04;100.00;93626.25;5049635;28;20060;-59
2023/09/23 02:39:17;;;;;;;3.10;1.60;;;;;;;8.01;100.00;93625.13;5051292;28;20041;-60
2023/09/23 02:41:46;;;;;;;5.07;1.55;;;;;;;8.02;100.00;93623.91;5028190;28;20072;-59
2023/09/23 02:44:20;;;;;;;2.72;1.60;;;;;;;8.03;100.00;93630.94;5048173;28;20041;-60
2023/09/23 02:46:48;;;;;;;3.43;1.40;;;;;;;8.03;100.00;93639.16;5050539;28;20049;-59
2023/09/23 02:49:16;;;;;;;3.58;1.55;;;;;;;8.01;100.00;93630.56;5051053;28;20049;-59
2023/09/23 02:51:44;;;;;;;2.83;1.60;;;;;;;8.04;100.00;93642.66;5050477;28;20059;-60
2023/09/23 02:54:18;;;;;;;2.97;1.63;;;;;;;7.97;100.00;93644.28;5051046;28;20044;-60
2023/09/23 02:56:50;;;;;;;3.35;1.60;;;;;;;7.99;100.00;93641.13;5050113;28;20055;-60
2023/09/23 02:59:25;;;;;;;2.60;1.40;;;;;;;7.99;100.00;93641.91;5050809;28;20490;-60
2023/09/23 03:01:53;;;;;;;3.80;1.83;;;;;;;7.97;100.00;93649.75;5050419;28;20045;-60
2023/09/23 03:04:23;;;;;;;2.95;1.70;;;;;;;7.93;100.00;93643.53;5050688;28;20553;-60
2023/09/23 03:06:55;;;;;;;2.47;1.15;;;;;;;7.82;100.00;93645.56;5050550;28;20056;-60
2023/09/23 03:09:26;;;;;;;3.85;1.60;;;;;;;7.84;100.00;93648.69;5050725;28;20086;-60
2023/09/23 03:11:55;;;;;;;3.53;1.60;;;;;;;7.61;100.00;93652.00;5050247;28;20044;-59
2023/09/23 03:14:25;;;;;;;6.40;2.30;;;;;;;7.59;100.00;93659.84;5050570;28;20506;-59
2023/09/23 03:16:53;;;;;;;3.60;1.80;;;;;;;7.60;100.00;93662.13;5050151;28;20041;-59
2023/09/23 03:19:28;;;;;;;2.50;1.45;;;;;;;7.66;100.00;93656.25;5050861;28;20563;-60
2023/09/23 03:21:56;;;;;;;3.22;1.83;;;;;;;7.72;100.00;93662.84;5038263;28;20052;-59
2023/09/23 03:24:28;;;;;;;2.90;1.50;;;;;;;7.71;100.00;93661.31;5049811;28;20460;-60
2023/09/23 03:26:58;;;;;;;3.13;1.30;;;;;;;7.78;100.00;93669.41;5049802;28;20041;-60
2023/09/23 03:29:28;;;;;;;3.28;1.70;;;;;;;7.77;100.00;93678.81;5050329;28;20057;-60
2023/09/23 03:31:55;;;;;;;4.05;1.40;;;;;;;7.77;100.00;93679.56;5050035;28;20382;-60
2023/09/23 03:34:23;;;;;;;2.60;1.55;;;;;;;7.80;100.00;93678.75;5050286;28;20043;-60
2023/09/23 03:36:53;;;;;;;3.53;1.40;;;;;;;7.83;100.00;93687.31;5049628;28;20049;-60
2023/09/23 03:39:20;;;;;;;2.90;1.52;;;;;;;7.82;100.00;93683.81;5050305;28;20474;-60
2023/09/23 03:41:47;;;;;;;2.30;1.40;;;;;;;7.84;100.00;93686.94;5048032;28;20091;-60
2023/09/23 03:44:16;;;;;;;2.75;1.38;;;;;;;7.82;100.00;93678.34;5049910;28;20051;-60
2023/09/23 03:46:48;;;;;;;3.55;1.50;;;;;;;7.82;100.00;93686.56;5049497;28;20053;-59
2023/09/23 03:49:14;;;;;;;2.40;1.23;;;;;;;7.84;100.00;93697.09;5049730;28;20043;-60
2023/09/23 03:51:41;;;;;;;3.95;1.30;;;;;;;7.87;100.00;93693.53;5049351;28;20049;-60
2023/09/23 03:54:08;;;;;;;3.15;1.70;;;;;;;7.88;100.00;93697.84;5049667;28;20045;-60
2023/09/23 03:56:35;;;;;;;2.65;1.65;;;;;;;7.90;100.00;93707.16;5049636;28;20049;-59
2023/09/23 03:59:06;;;;;;;2.47;1.42;;;;;;;7.91;100.00;93716.16;5049269;28;20048;-60
2023/09/23 04:01:33;;;;;;;2.70;1.33;;;;;;;7.77;100.00;93714.31;5049687;28;20045;-59
2023/09/23 04:04:02;;;;;;;2.50;1.40;;;;;;;7.80;100.00;93710.78;5049023;28;20045;-59
2023/09/23 04:06:30;;;;;;;3.03;1.58;;;;;;;7.84;100.00;93722.44;5049353;28;20084;-59
2023/09/23 04:08:58;;;;;;;3.38;1.30;;;;;;;7.88;100.00;93723.19;5048905;28;20041;-59
2023/09/23 04:11:26;;;;;;;3.17;1.42;;;;;;;7.80;100.00;93721.69;5049627;28;20436;-59
2023/09/23 04:13:53;;;;;;;2.63;1.60;;;;;;;7.71;100.00;93724.13;5048508;28;20045;-60
2023/09/23 04:16:21;;;;;;;3.15;1.42;;;;;;;7.71;100.00;93724.13;5018984;28;20045;-59
2023/09/23 04:18:51;;;;;;;3.92;1.90;;;;;;;7.69;100.00;93721.78;5048606;28;20053;-60
2023/09/23 04:21:20;;;;;;;3.75;1.60;;;;;;;7.67;100.00;93715.19;5032091;28;20033;-59
2023/09/23 04:23:48;;;;;;;3.03;1.63;;;;;;;7.68;100.00;93717.50;5048487;28;20055;-59
2023/09/23 04:26:15;;;;;;;3.63;1.60;;;;;;;7.74;100.00;93717.84;5049425;28;20037;-59
2023/09/23 04:28:43;;;;;;;3.88;1.88;;;;;;;7.78;100.00;93713.13;5048166;28;20090;-60
2023/09/23 04:31:12;;;;;;;3.53;1.63;;;;;;;7.77;100.00;93722.50;5049141;28;20041;-60
2023/09/23 04:33:39;;;;;;;2.60;1.50;;;;;;;7.79;100.00;93723.66;5048946;28;20045;-60
2023/09/23 04:36:10;;;;;;;3.13;1.77;;;;;;;7.49;100.00;93721.53;5047690;28;20849;-60
2023/09/23 04:38:37;;;;;;;3.00;1.90;;;;;;;7.40;100.00;93732.13;5048696;28;20547;-60
2023/09/23 04:41:05;;;;;;;4.30;1.60;;;;;;;7.43;100.00;93731.31;5045209;28;20384;-60
2023/09/23 04:43:32;;;;;;;3.30;1.70;;;;;;;7.37;100.00;93732.94;5028909;28;20049;-59
2023/09/23 04:45:59;;;;;;;4.03;1.60;;;;;;;7.38;100.00;93734.47;5028825;28;20041;-60
2023/09/23 04:48:26;;;;;;;4.05;1.80;;;;;;;7.44;100.00;93732.88;5027294;28;20037;-60
2023/09/23 04:50:56;;;;;;;3.57;1.93;;;;;;;7.49;100.00;93735.19;5028073;28;20574;-60
2023/09/23 04:53:23;;;;;;;3.47;1.80;;;;;;;7.51;100.00;93737.53;5029238;28;20478;-60
2023/09/23 04:55:49;;;;;;;4.13;2.05;;;;;;;7.54;100.00;93734.75;5028423;28;20056;-59
2023/09/23 04:58:17;;;;;;;4.20;2.00;;;;;;;7.50;100.00;93730.50;5028844;28;20426;-60
2023/09/23 05:00:43;;;;;;;3.70;2.10;;;;;;;7.49;100.00;93740.66;5026371;28;20048;-59
2023/09/23 05:03:11;;;;;;;4.93;1.90;;;;;;;7.49;100.00;93732.47;5020618;28;20045;-60
2023/09/23 05:05:38;;;;;;;3.92;2.00;;;;;;;7.57;100.00;93744.13;5026857;28;20088;-59
2023/09/23 05:08:09;;;;;;;3.30;1.80;;;;;;;7.49;100.00;93753.53;5027608;28;20047;-60
2023/09/23 05:10:39;;;;;;;3.55;1.67;;;;;;;7.54;100.00;93753.88;5028660;28;20049;-59
2023/09/23 05:13:06;;;;;;;3.92;2.10;;;;;;;7.61;100.00;93758.53;5027868;28;20536;-60
2023/09/23 05:15:32;;;;;;;3.00;1.60;;;;;;;7.56;100.00;93754.25;5028560;28;20486;-59
2023/09/23 05:18:00;;;;;;;3.78;1.70;;;;;;;7.53;100.00;93757.00;5015309;28;20051;-60
2023/09/23 05:20:28;;;;;;;4.00;2.08;;;;;;;7.55;100.00;93760.13;5028830;28;20065;-60
2023/09/23 05:22:55;;;;;;;3.85;2.10;;;;;;;7.53;100.00;93763.25;5027883;28;20046;-60
2023/09/23 05:25:27;;;;;;;4.60;2.67;;;;;;;7.45;100.00;93769.16;5028778;28;20124;-60
2023/09/23 05:27:54;;;;;;;3.73;2.10;;;;;;;7.39;100.00;93777.00;5027425;28;20095;-59
2023/09/23 05:30:22;;;;;;;4.35;2.85;;;;;;;7.48;100.00;93782.78;5027481;28;20134;-59
2023/09/23 05:32:49;;;;;;;5.93;3.17;;;;;;;7.57;100.00;93779.63;5027493;28;20479;-59
2023/09/23 05:35:16;;;;;;;5.38;2.33;;;;;;;7.61;100.00;93777.63;5028379;28;20038;-59
2023/09/23 05:37:43;;;;;;;3.80;2.10;;;;;;;7.67;100.00;93788.94;5028006;28;20490;-59
2023/09/23 05:40:23;;;;;;;4.27;1.87;;;;;;;7.73;100.00;93790.06;5028307;28;20038;-59
2023/09/23 05:42:50;;;;;;;4.85;1.90;;;;;;;7.80;100.00;93800.91;5027564;28;20049;-60
2023/09/23 05:45:18;;;;;;;3.65;2.20;;;;;;;7.71;100.00;93804.09;5028348;28;20383;-60
2023/09/23 05:47:45;;;;;;;4.43;2.00;;;;;;;7.31;100.00;93805.50;5029300;28;20046;-59
2023/09/23 05:50:13;;;;;;;3.58;2.03;;;;;;;7.38;100.00;93808.97;5039602;28;20793;-60
2023/09/23 05:52:40;;;;;;;5.03;1.80;;;;;;;7.38;100.00;93813.63;5031373;28;20050;-58
2023/09/23 05:55:08;;;;;;;3.22;1.92;;;;;;;7.51;100.00;93820.22;5032191;28;20059;-59
2023/09/23 05:57:35;;;;;;;5.50;2.45;;;;;;;7.60;100.00;93827.97;5031431;28;20049;-59
2023/09/23 06:00:05;;;;;;;5.70;2.17;;;;;;;7.80;100.00;93830.97;5031864;28;20041;-60
2023/09/23 06:02:32;;;;;;;3.60;2.10;;;;;;;7.95;100.00;93835.19;5032127;28;20045;-60
2023/09/23 06:05:01;;;;;;;4.17;1.90;;;;;;;8.05;100.00;93822.63;5031438;28;20256;-60
2023/09/23 06:07:29;;;;;;;4.50;2.00;;;;;;;8.14;100.00;93838.56;5029782;28;20055;-59
2023/09/23 06:09:58;;;;;;;3.72;1.73;;;;;;;8.25;100.00;93843.94;5031685;28;20130;-60
2023/09/23 06:12:31;;;;;;;4.78;1.50;;;;;;;8.38;100.00;93837.59;5032103;28;20041;-60
2023/09/23 06:15:00;;;;;;;4.55;1.63;;;;;;;8.52;100.00;93844.16;5031782;28;20502;-60
2023/09/23 06:17:28;;;;;;;4.47;1.80;;;;;;;8.48;100.00;93846.91;5032291;28;20037;-59
2023/09/23 06:19:59;;;;;;;3.33;1.80;;;;;;;8.49;100.00;93847.69;5031648;28;20102;-59
2023/09/23 06:22:27;;;;;;;3.67;1.98;;;;;;;8.48;100.00;93846.91;5032327;28;20120;-60
2023/09/23 06:24:54;;;;;;;4.50;2.40;;;;;;;8.56;100.00;93851.13;5031916;28;20260;-60
2023/09/23 06:27:21;;;;;;;4.05;2.03;;;;;;;8.66;100.00;93854.19;5032108;28;20417;-59
2023/09/23 06:29:48;;;;;;;3.60;2.07;;;;;;;8.51;100.00;93853.53;5031605;28;20582;-60
2023/09/23 06:32:14;;;;;;;4.38;2.40;;;;;;;8.31;100.00;93847.78;5018710;28;20041;-60
2023/09/23 06:34:41;;;;;;;4.47;2.15;;;;;;;8.56;100.00;93853.09;5031156;28;20045;-59
2023/09/23 06:37:08;;;;;;;4.90;2.30;;;;;;;8.86;100.00;93851.66;5018769;28;20041;-60
2023/09/23 06:39:35;;;;;;;4.32;2.60;;;;;;;8.85;100.00;93858.31;5031803;28;20512;-59
2023/09/23 06:42:02;;;;;;;4.40;2.40;;;;;;;8.76;100.00;93862.28;5031524;28;20094;-59
2023/09/23 06:44:28;;;;;;;4.15;2.40;;;;;;;8.60;100.00;93860.09;5031930;28;20054;-60
2023/09/23 06:46:55;;;;;;;4.03;2.53;;;;;;;8.67;100.00;93863.94;5031052;28;20482;-60
2023/09/23 06:49:22;;;;;;;4.22;2.60;;;;;;;8.79;100.00;93861.50;5031590;28;20038;-60
2023/09/23 06:51:49;;;;;;;5.63;2.90;;;;;;;8.71;100.00;93870.97;5030930;28;20099;-60
2023/09/23 06:54:15;;;;;;;5.27;3.23;;;;;;;8.52;100.00;93871.50;5031685;28;20054;-60
2023/09/23 06:56:42;;;;;;;4.93;3.20;;;;;;;8.73;100.00;93867.78;5030813;28;20041;-59
2023/09/23 06:59:09;;;;;;;6.68;3.50;;;;;;;8.90;100.00;93882.50;5030803;28;20545;-60
2023/09/23 07:01:36;;;;;;;6.93;3.40;;;;;;;9.12;100.00;93896.75;5031158;28;20045;-60
2023/09/23 07:04:04;;;;;;;7.88;4.00;;;;;;;9.02;100.00;93897.66;5031114;28;20053;-60
2023/09/23 07:06:31;;;;;;;6.17;3.90;;;;;;;9.13;100.00;93887.34;5029454;28;20064;-59
2023/09/23 07:08:58;;;;;;;6.53;4.00;;;;;;;9.31;100.00;93887.94;5030714;28;20053;-60
2023/09/23 07:11:25;;;;;;;7.45;4.00;;;;;;;9.64;100.00;93891.09;5031293;28;20045;-60
2023/09/23 07:13:51;;;;;;;5.57;3.58;;;;;;;9.92;100.00;93894.66;5029876;28;20052;-60
2023/09/23 07:16:18;;;;;;;5.35;3.50;;;;;;;10.06;100.00;93889.00;5030520;28;20045;-59
2023/09/23 07:18:45;;;;;;;5.70;3.50;;;;;;;10.11;100.00;93895.97;5029780;28;20045;-59
2023/09/23 07:21:12;;;;;;;4.95;3.30;;;;;;;10.20;100.00;93902.50;5030377;28;20045;-60
2023/09/23 07:23:39;;;;;;;6.88;3.65;;;;;;;10.45;100.00;93897.88;5030670;28;20052;-60
2023/09/23 07:26:06;;;;;;;4.80;3.30;;;;;;;10.37;100.00;93906.22;5029823;28;21826;-60
2023/09/23 07:28:33;;;;;;;5.85;4.13;;;;;;;10.67;100.00;93912.06;5030548;28;20052;-60
2023/09/23 07:31:01;;;;;;;5.70;3.70;;;;;;;11.02;100.00;93909.91;5029803;28;20060;-60
2023/09/23 07:33:28;;;;;;;6.22;3.03;;;;;;;11.18;100.00;93916.28;5030358;28;20045;-60
2023/09/23 07:35:54;;;;;;;4.70;2.65;;;;;;;11.33;100.00;93913.28;5029569;28;20689;-60
2023/09/23 07:38:22;;;;;;;4.00;2.45;;;;;;;11.25;100.00;93917.34;5029870;28;20041;-60
2023/09/23 07:40:49;;;;;;;4.82;2.65;;;;;;;11.98;100.00;93915.59;5029498;28;20063;-60
2023/09/23 07:43:16;;;;;;;3.83;2.33;;;;;;;12.37;100.00;93924.97;5030094;28;20504;-60
2023/09/23 07:45:43;;;;;;;4.28;2.40;;;;;;;13.04;100.00;93935.63;5029585;28;20059;-60
2023/09/23 07:48:09;;;;;;;4.22;2.50;;;;;;;13.55;100.00;93924.91;5030440;28;20397;-60
2023/09/23 07:50:36;;;;;;;5.03;2.25;;;;;;;12.81;100.00;93927.53;5029807;28;20487;-60
2023/09/23 07:53:03;;;;;;;4.70;2.30;;;;;;;13.14;100.00;93931.06;5029576;28;20044;-60
2023/09/23 07:55:30;;;;;;;4.43;2.27;;;;;;;13.68;100.00;93930.50;5029535;28;20041;-60
2023/09/23 07:57:57;;;;;;;3.25;1.90;;;;;;;13.23;100.00;93941.47;5029069;28;20118;-60
2023/09/23 08:00:24;;;;;;;3.28;2.10;;;;;;;12.90;100.00;93939.50;5036034;28;20398;-60
2023/09/23 08:02:54;;;;;;;3.70;1.90;;;;;;;12.61;100.00;93950.41;5030703;28;20045;-60
2023/09/23 08:05:24;;;;;;;3.58;1.77;;;;;;;12.62;100.00;93943.69;5016899;28;20068;-60
2023/09/23 08:07:51;;;;;;;2.60;1.50;;;;;;;12.71;100.00;93956.88;5025685;28;20049;-60
2023/09/23 08:10:18;;;;;;;3.05;1.60;;;;;;;13.24;100.00;93949.31;5030028;28;20049;-60
2023/09/23 08:12:45;;;;;;;3.20;1.40;;;;;;;13.22;100.00;93954.50;5029459;28;20058;-60
2023/09/23 08:15:12;;;;;;;3.47;1.35;;;;;;;13.72;100.00;93969.00;5029814;28;20041;-60
2023/09/23 08:17:39;;;;;;;3.70;1.95;;;;;;;14.29;100.00;93970.19;5029948;28;20088;-60
2023/09/23 08:20:17;;;;;;;15.27;7.40;;;;;;;14.76;100.00;93966.06;5043957;28;20147;-58
2023/09/23 08:22:45;;;;;;;6.80;4.18;;;;;;;14.28;100.00;93976.91;5029162;28;20041;-58
2023/09/23 08:25:14;;;;;;;6.05;4.50;;;;;;;14.61;100.00;93973.22;5029803;28;20045;-58
2023/09/23 08:27:42;;;;;;;5.57;3.53;;;;;;;15.50;100.00;93992.56;5029070;28;20419;-58
2023/09/23 08:30:10;;;;;;;3.60;1.80;;;;;;;15.41;100.00;93992.44;5029835;28;20041;-60
2023/09/23 08:32:37;;;;;;;2.63;1.30;;;;;;;14.35;100.00;94007.09;5029964;28;20055;-60
2023/09/23 08:35:06;;;;;;;5.57;3.35;;;;;;;15.28;100.00;93991.72;5029533;28;20682;-60
2023/09/23 08:37:36;;;;;;;7.43;4.45;;;;;;;16.15;100.00;93990.38;5029580;28;20419;-61
2023/09/23 08:40:10;;;;;;;3.97;2.08;;;;;;;16.62;100.00;93994.22;5029019;28;20044;-60
2023/09/23 08:42:38;;;;;;;17.50;12.25;;;;;;;17.26;100.00;93994.56;5029936;28;20404;-61
2023/09/23 08:45:10;;;;;;;3.53;1.73;;;;;;;17.05;97.80;93998.19;5028544;28;20797;-61
2023/09/23 08:47:37;;;;;;;3.55;2.20;;;;;;;18.17;94.10;93998.00;5029702;28;20045;-59
2023/09/23 08:50:08;;;;;;;2.50;1.10;;;;;;;17.40;88.92;93998.00;5028329;28;20883;-59
2023/09/23 08:52:36;;;;;;;2.38;1.00;;;;;;;17.36;90.59;93996.16;5029364;28;20046;-59
2023/09/23 08:55:04;;;;;;;2.42;0.90;;;;;;;17.65;88.32;94000.53;5030515;28;20037;-59
2023/09/23 08:57:31;;;;;;;2.40;0.97;;;;;;;16.92;90.09;93998.28;5033590;28;20053;-59
2023/09/23 08:59:58;;;;;;;3.35;1.20;;;;;;;16.84;94.92;94003.34;5028946;28;20421;-59
2023/09/23 09:02:26;;;;;;;3.22;1.60;;;;;;;16.28;98.16;93996.66;5029498;28;20041;-58
2023/09/23 09:04:54;;;;;;;3.03;1.00;;;;;;;16.64;94.17;94005.63;5028735;28;20073;-59
2023/09/23 09:07:32;;;;;;;4.65;2.20;;;;;;;16.29;96.11;93998.19;5029216;28;20044;-58
2023/09/23 09:09:58;;;;;;;3.53;1.37;;;;;;;16.97;92.10;93995.69;5029051;28;20041;-61
2023/09/23 09:12:25;;;;;;;2.20;1.00;;;;;;;17.37;86.38;93996.91;5029386;28;20048;-58
2023/09/23 09:14:52;;;;;;;3.00;1.20;;;;;;;16.50;95.42;94001.38;5028701;28;20080;-58
2023/09/23 09:17:19;;;;;;;2.92;1.00;;;;;;;17.12;91.57;93992.34;5029150;28;20057;-59
2023/09/23 09:19:47;;;;;;;2.85;1.58;;;;;;;16.74;95.42;94001.69;5027397;28;20064;-59
2023/09/23 09:22:19;;;;;;;4.93;1.30;;;;;;;17.74;94.53;94005.31;5028740;28;20049;-59
2023/09/23 09:24:49;;;;;;;2.92;1.25;;;;;;;19.38;83.31;94007.63;5028874;28;20484;-58
2023/09/23 09:27:15;;;;;;;2.97;1.20;;;;;;;20.13;73.96;94005.97;5028492;28;20486;-59
2023/09/23 09:29:43;;;;;;;2.80;0.90;;;;;;;18.53;81.86;94008.31;5028677;28;20091;-59
2023/09/23 09:32:10;;;;;;;2.50;1.00;;;;;;;18.41;81.55;94009.25;5027322;28;20405;-59
2023/09/23 09:34:47;;;;;;;2.20;1.10;;;;;;;19.13;75.26;94008.81;5029248;28;20041;-59
2023/09/23 09:37:15;;;;;;;2.95;0.80;;;;;;;18.11;76.95;94005.38;5027623;28;20293;-59
2023/09/23 09:40:00;;;;;;;3.65;1.10;;;;;;;17.31;89.56;94007.84;5027561;28;20064;-59
2023/09/23 09:42:30;;;;;;;3.65;1.02;;;;;;;17.10;91.35;94009.47;5028387;28;20045;-59
2023/09/23 09:44:57;;;;;;;2.25;0.93;;;;;;;15.63;100.00;94014.66;5027228;28;20044;-59
2023/09/23 09:47:24;;;;;;;2.53;1.03;;;;;;;17.28;92.47;94016.28;5027885;28;20426;-59
2023/09/23 09:49:54;;;;;;;2.00;0.90;;;;;;;16.93;94.82;94000.59;5027227;28;20761;-59
2023/09/23 09:52:22;;;;;;;2.15;1.10;;;;;;;18.43;87.77;94004.00;5028512;28;20044;-60
2023/09/23 09:54:52;;;;;;;2.90;1.10;;;;;;;19.29;78.25;94013.22;5027332;28;20073;-59
2023/09/23 09:57:22;;;;;;;3.25;1.20;;;;;;;18.44;80.97;94011.09;5028147;28;20046;-60
2023/09/23 09:59:52;;;;;;;2.43;1.20;;;;;;;18.62;85.04;94015.09;5027479;28;20494;-59
2023/09/23 10:02:21;;;;;;;2.30;0.90;;;;;;;20.82;70.75;94004.00;5028119;28;20048;-60
2023/09/23 10:04:49;;;;;;;2.88;1.10;;;;;;;21.02;67.22;94003.31;5027411;28;20556;-59
2023/09/23 10:07:16;;;;;;;2.92;0.98;;;;;;;20.27;64.63;94001.69;5028272;28;20037;-59
2023/09/23 10:09:53;;;;;;;2.55;1.10;;;;;;;18.67;72.50;94011.69;5027954;28;20047;-59
2023/09/23 10:12:31;;;;;;;2.27;0.90;;;;;;;20.27;67.82;94012.84;5027824;28;20041;-60
2023/09/23 10:14:59;;;;;;;2.00;0.80;;;;;;;19.25;70.99;94009.84;5026955;28;20050;-59
2023/09/23 10:17:31;;;;;;;5.13;1.27;;;;;;;18.07;84.61;94011.09;5015474;28;20080;-60
2023/09/23 10:20:00;;;;;;;2.67;1.02;;;;;;;17.24;84.11;94008.09;5027445;28;20053;-59
2023/09/23 10:22:30;;;;;;;2.13;1.05;;;;;;;19.91;74.27;93995.16;5027992;28;20037;-60
2023/09/23 10:25:04;;;;;;;2.10;0.90;;;;;;;19.29;71.01;94007.66;5027195;28;20049;-60
2023/09/23 10:27:32;;;;;;;2.30;0.95;;;;;;;17.85;78.99;94005.69;5028124;28;20044;-60
2023/09/23 10:30:02;;;;;;;3.20;1.02;;;;;;;16.21;98.70;94001.66;5026816;28;20041;-59
2023/09/23 10:32:29;;;;;;;2.30;1.00;;;;;;;17.51;89.57;94009.44;5028034;28;20048;-59
2023/09/23 10:34:56;;;;;;;2.10;0.90;;;;;;;18.58;81.55;94003.38;5027973;28;20049;-59
2023/09/23 10:37:33;;;;;;;2.50;1.10;;;;;;;18.92;79.46;94002.25;5031691;28;20033;-59
2023/09/23 10:40:15;;;;;;;3.25;1.10;;;;;;;17.44;82.63;94001.41;5030705;28;20051;-59
2023/09/23 10:42:46;;;;;;;2.22;1.10;;;;;;;16.28;96.69;94002.19;5031038;28;20053;-59
2023/09/23 10:45:16;;;;;;;2.30;1.00;;;;;;;18.91;82.49;94003.47;5045963;28;20051;-59
2023/09/23 10:47:43;;;;;;;2.55;1.30;;;;;;;19.94;71.73;93994.19;5031046;28;20049;-60
2023/09/23 10:50:11;;;;;;;4.30;1.93;;;;;;;22.00;63.41;93993.13;5031034;28;20092;-59
2023/09/23 10:52:38;;;;;;;7.82;3.28;;;;;;;21.99;59.82;93988.78;5029811;28;20053;-60
2023/09/23 10:55:09;;;;;;;5.07;2.25;;;;;;;23.03;59.34;93988.94;5038344;28;21826;-60
2023/09/23 10:57:36;;;;;;;2.58;1.00;;;;;;;23.47;53.95;93995.41;5030709;28;20110;-60
2023/09/23 11:00:12;;;;;;;3.10;1.20;;;;;;;21.19;59.89;93992.47;5030118;28;20043;-59
2023/09/23 11:02:43;;;;;;;3.33;1.17;;;;;;;18.41;70.99;93994.56;5044547;28;20042;-59
2023/09/23 11:05:11;;;;;;;4.28;1.35;;;;;;;17.91;78.45;94006.63;5029807;28;20797;-59
2023/09/23 11:07:42;;;;;;;2.80;1.17;;;;;;;15.91;90.43;94009.41;5029614;28;20060;-59
2023/09/23 11:10:12;;;;;;;3.25;1.35;;;;;;;15.80;95.74;94004.25;5029668;28;20354;-59
2023/09/23 11:12:45;;;;;;;3.30;1.50;;;;;;;15.83;98.24;94008.09;5030857;28;20453;-59
2023/09/23 11:15:13;;;;;;;2.70;1.13;;;;;;;16.27;95.63;94008.94;5029546;28;20045;-59
2023/09/23 11:17:41;;;;;;;7.57;2.72;;;;;;;16.16;99.06;94006.56;5030030;28;20495;-61
2023/09/23 11:20:10;;;;;;;16.77;4.75;;;;;;;16.18;97.62;94006.13;5029935;28;20053;-58
2023/09/23 11:22:38;;;;;;;4.05;1.98;;;;;;;16.62;95.57;94014.41;5030723;28;20098;-59
2023/09/23 11:25:10;;;;;;;2.42;1.15;;;;;;;16.78;95.22;94022.53;5029493;28;21614;-59
2023/09/23 11:27:37;;;;;;;2.77;1.20;;;;;;;16.08;100.00;94021.09;5030350;28;20041;-59
2023/09/23 11:30:05;;;;;;;3.17;1.63;;;;;;;15.94;100.00;94025.13;5029655;28;20373;-59
2023/09/23 11:32:33;;;;;;;3.15;1.05;;;;;;;15.40;100.00;94026.09;5029855;28;20045;-59
2023/09/23 11:35:00;;;;;;;4.00;1.30;;;;;;;15.69;100.00;94020.41;5030169;28;20176;-59
2023/09/23 11:37:27;;;;;;;3.95;2.25;;;;;;;15.94;100.00;94019.59;5030811;28;20045;-59